Flight Track Log - Related Links

Times and Time Zones

All times are in EDT time to prevent confusion due to time zone crossing. See the CSN3452 flight status page for this flight to view local times or setup timezone preferences in your user account.

Time Position Orientation Groundspeed Altitude Reporting Facility
EDT Latitude Longitude Course Direction KTS MPH feet Rate Location/Type
Sat 09:13:00 AM 25.0743 103.0770 102° East  Level Estimated
Sat 09:14:00 AM 25.0465 103.2247 102° East  Level Estimated
Sat 09:15:00 AM 25.0185 103.3723 102° East  Level Estimated
Sat 09:16:00 AM 24.9904 103.5199 102° East  Level Estimated
Sat 09:17:00 AM 24.9622 103.6674 102° East  Level Estimated
Sat 09:18:00 AM 24.9338 103.8149 102° East  Level Estimated
Sat 09:19:00 AM 24.9052 103.9622 102° East  Level Estimated
Sat 09:20:00 AM 24.8765 104.1096 102° East  Level Estimated
Sat 09:21:00 AM 24.8477 104.2568 102° East  Level Estimated
Sat 09:22:00 AM 24.8187 104.4040 102° East  Level Estimated
Sat 09:23:00 AM 24.7896 104.5511 102° East  Level Estimated
Sat 09:24:00 AM 24.7603 104.6981 102° East  Level Estimated
Sat 09:25:00 AM 24.7309 104.8451 102° East  Level Estimated
Sat 09:26:00 AM 24.7014 104.9920 102° East  Level Estimated
Sat 09:27:00 AM 24.6717 105.1388 103° East  Level Estimated
Sat 09:28:00 AM 24.6419 105.2856 103° East  Level Estimated
Sat 09:29:00 AM 24.6119 105.4323 103° East  Level Estimated
Sat 09:30:00 AM 24.5818 105.5789 103° East  Level Estimated
Sat 09:31:00 AM 24.5515 105.7254 103° East  Level Estimated
Sat 09:32:00 AM 24.5211 105.8719 103° East  Level Estimated
Sat 09:33:00 AM 24.4906 106.0183 103° East  Level Estimated
Sat 09:34:00 AM 24.4599 106.1647 103° East  Level Estimated
Sat 09:35:00 AM 24.4290 106.3109 103° East  Level Estimated
Sat 09:36:00 AM 24.3981 106.4571 103° East  Level Estimated
Sat 09:37:00 AM 24.3670 106.6032 103° East  Level Estimated
Sat 09:38:00 AM 24.3357 106.7493 103° East  Level Estimated
Sat 09:39:00 AM 24.3043 106.8952 103° East  Level Estimated
Sat 09:40:00 AM 24.2728 107.0412 103° East  Level Estimated
Sat 09:41:00 AM 24.2411 107.1870 103° East  Level Estimated
Sat 09:42:00 AM 24.2093 107.3327 103° East  Level Estimated
Sat 09:43:00 AM 24.1774 107.4784 103° East  Level Estimated
Sat 09:44:00 AM 24.1453 107.6240 104° East  Level Estimated
Sat 09:45:00 AM 24.1131 107.7696 104° East  Level Estimated
Sat 09:46:00 AM 24.0807 107.9150 104° East  Level Estimated
Sat 09:47:00 AM 24.0482 108.0604 104° East  Level Estimated
Sat 09:48:00 AM 24.0156 108.2057 104° East  Level Estimated
Sat 09:49:00 AM 23.9828 108.3510 104° East  Level Estimated
Sat 09:50:00 AM 23.9499 108.4961 104° East  Level Estimated
Sat 09:51:00 AM 23.9169 108.6412 104° East  Level Estimated
Sat 09:52:00 AM 23.8837 108.7863 104° East  Level Estimated
Sat 09:53:00 AM 23.8504 108.9312 104° East  Level Estimated
Sat 09:54:00 AM 23.8170 109.0761 104° East  Level Estimated
Sat 09:55:00 AM 23.7834 109.2209 104° East  Level Estimated
Sat 09:56:00 AM 23.7497 109.3656 104° East  Level Estimated
Sat 09:57:00 AM 23.7158 109.5102 104° East  Level Estimated
Sat 09:58:00 AM 23.6818 109.6548 104° East  Level Estimated
Sat 09:59:00 AM 23.6477 109.7993 104° East  Level Estimated
Sat 10:00:00 AM 23.6134 109.9437 104° East  Level Estimated
Sat 10:01:00 AM 23.5791 110.0881 105° East  Level Estimated
Sat 10:02:00 AM 23.5445 110.2324 105° East  Level Estimated
Sat 10:03:00 AM 23.5099 110.3765 105° East  Level Estimated
Sat 10:04:00 AM 23.4751 110.5207 105° East  Level Estimated
Sat 10:05:00 AM 23.4402 110.6647 105° East  Level Estimated
Sat 10:06:00 AM 23.4051 110.8087 105° East  Level Estimated
Sat 10:07:00 AM 23.3699 110.9526 105° East  Level Estimated
Sat 10:08:00 AM 23.3346 111.0964 105° East  Level Estimated
Sat 10:09:00 AM 23.2992 111.2401 105° East  Level Estimated
Sat 10:10:00 AM 23.2636 111.3838 105° East  Level Estimated
Sat 10:11:00 AM 23.2279 111.5273 105° East  Level Estimated
Sat 10:12:00 AM 23.1920 111.6709 105° East  Level Estimated
Sat 10:13:00 AM 23.1561 111.8143 105° East  Level Estimated
Sat 10:14:00 AM 23.1200 111.9576 105° East  Level Estimated
Sat 10:15:00 AM 23.0837 112.1009 105° East  Level Estimated
Sat 10:16:00 AM 23.0474 112.2441 105° East  Level Estimated
Sat 10:17:00 AM 23.0109 112.3872 105° East  Level Estimated
Sat 10:18:00 AM 22.9829 112.4967 106° East  Level Estimated
Sat 10:19:00 AM 22.9548 112.6061 106° East  Level Estimated
Sat 10:20:00 AM 22.9266 112.7155 106° East  Level Estimated
Sat 10:21:00 AM 22.8984 112.8249 106° East  Level Estimated
Sat 10:22:00 AM 22.8701 112.9342 106° East  Level Estimated
Sat 10:23:00 AM 22.8417 113.0434 106° East  Level Estimated
Sat 10:24:00 AM 22.8133 113.1526 106° East  Level Estimated
Sat 10:25:00 AM 22.7847 113.2618 106° East  Level Estimated
Sat 10:26:00 AM 22.7561 113.3709 106° East  Level Estimated
Sat 10:27:00 AM 22.7274 113.4799 106° East  Level Estimated
Sat 10:28:00 AM 22.6987 113.5890 106° East  Level Estimated
Sat 10:29:00 AM 22.6698 113.6979 106° East  Level Estimated
Sat 10:30:00 AM 22.6409 113.8069 106° East  Level Estimated
Sat 10:31:00 AM 22.6395 113.8124 106° East  Level Estimated
Sat 10:32:00 AM 22.6395 113.8124 25° Northeast  Level Estimated
Sat 10:33:00 AM 22.6395 113.8124 25° Northeast  Level Estimated
Sat 10:34:00 AM 22.6395 113.8124 25° Northeast  Level Estimated
Sat 10:35:00 AM 22.6395 113.8124 25° Northeast  Level Estimated
Sat 10:36:00 AM 22.6395 113.8124 25° Northeast  Level Estimated
Sat 10:37:00 AM 22.6395 113.8124 25° Northeast  Level Estimated
Sat 10:38:00 AM 22.6395 113.8124 25° Northeast  Level Estimated
Sat 10:39:00 AM 22.6395 113.8124 25° Northeast  Level Estimated
Sat 10:40:00 AM 22.6395 113.8124 25° Northeast  Level Estimated
Sat 10:41:00 AM 22.6395 113.8124 25° Northeast  Level Estimated
Sat 10:42:00 AM 22.6395 113.8124 25° Northeast  Level Estimated
Sat 10:43:00 AM 22.6395 113.8124 25° Northeast  Level Estimated
Sat 10:44:00 AM 22.6395 113.8124 25° Northeast  Level Estimated
Sat 10:45:00 AM 22.6395 113.8124 25° Northeast  Level Estimated
Sat 10:46:00 AM 22.6395 113.8124 25° Northeast  Level Estimated
Sat 10:47:00 AM 22.6395 113.8124 25° Northeast  Level Estimated
Sat 10:48:00 AM 22.6395 113.8124 25° Northeast  Level Estimated
Sat 10:49:00 AM 22.6395 113.8124 25° Northeast  Level Estimated
Sat 10:50:00 AM 22.6395 113.8124 25° Northeast  Level Estimated
Sat 10:51:00 AM 22.6395 113.8124 25° Northeast  Level Estimated

Login

Don't have an account? Register now (free) for customized features, flight alerts, and more!